Time;durP1;ratioP1;P1;durP2;ratioP2;P2;SDS_P1;SDS_P2;PMS_P1;PMS_P2;Temp;Humidity;BMP_temperature;BMP_pressure;BME280_temperature;BME280_humidity;BME280_pressure;Samples;Min_cycle;Max_cycle;Signal;HPM_P1;HPM_P2
2021/06/15 00:02:03;;;;;;;20.30;10.77;;;;;;;-145.50;100.00;65435.88;4925473;29;20424;-43
2021/06/15 00:04:30;;;;;;;16.40;10.38;;;;;;;-145.50;100.00;65435.88;4917591;29;20071;-48
2021/06/15 00:06:56;;;;;;;19.13;9.85;;;;;;;-145.50;100.00;65435.88;4919418;29;20142;-43
2021/06/15 00:09:23;;;;;;;18.08;10.43;;;;;;;-145.50;100.00;65435.88;4914609;29;20143;-43
2021/06/15 00:11:49;;;;;;;21.15;10.27;;;;;;;-145.50;100.00;65435.88;4907098;29;20138;-44
2021/06/15 00:14:15;;;;;;;19.52;10.00;;;;;;;-145.50;100.00;65435.88;4921719;29;20140;-42
2021/06/15 00:16:42;;;;;;;15.85;10.48;;;;;;;-145.50;100.00;65435.88;4919381;29;20142;-42
2021/06/15 00:19:08;;;;;;;21.10;10.38;;;;;;;-145.50;100.00;65435.88;4925525;29;20059;-42
2021/06/15 00:21:35;;;;;;;17.67;9.95;;;;;;;-145.50;100.00;65435.88;4918375;29;20058;-42
2021/06/15 00:24:02;;;;;;;21.20;10.40;;;;;;;-145.50;100.00;65435.88;4899235;29;20143;-42
2021/06/15 00:26:28;;;;;;;20.70;11.32;;;;;;;-145.50;100.00;65435.88;4903905;29;20134;-42
2021/06/15 00:28:54;;;;;;;22.45;11.50;;;;;;;-145.50;100.00;65435.88;4919652;29;20150;-43
2021/06/15 00:31:24;;;;;;;20.65;11.45;;;;;;;-145.50;100.00;65435.88;4925509;29;20142;-45
2021/06/15 00:33:51;;;;;;;19.90;10.65;;;;;;;-145.50;100.00;65435.88;4901193;29;20139;-42
2021/06/15 00:36:17;;;;;;;18.95;10.40;;;;;;;-145.50;100.00;65435.88;4919398;29;20098;-44
2021/06/15 00:38:44;;;;;;;19.25;10.23;;;;;;;-145.50;100.00;65435.88;4893093;29;20051;-43
2021/06/15 00:41:11;;;;;;;19.40;11.15;;;;;;;-145.50;100.00;65435.88;4922917;29;20062;-46
2021/06/15 00:43:38;;;;;;;20.50;10.80;;;;;;;-145.50;100.00;65435.88;4921602;29;20155;-45
2021/06/15 00:46:04;;;;;;;19.17;10.25;;;;;;;-145.50;100.00;65435.88;4917519;29;20134;-42
2021/06/15 00:48:34;;;;;;;24.52;10.75;;;;;;;-145.50;100.00;65435.88;4925017;29;20077;-47
2021/06/15 00:51:03;;;;;;;20.23;10.30;;;;;;;-145.50;100.00;65435.88;4915532;29;20465;-43
2021/06/15 00:53:30;;;;;;;20.50;10.30;;;;;;;-145.50;100.00;65435.88;4902857;29;20147;-44
2021/06/15 00:55:58;;;;;;;16.65;10.45;;;;;;;-145.50;100.00;65435.88;4918166;29;20150;-42
2021/06/15 00:58:24;;;;;;;19.80;9.70;;;;;;;-145.50;100.00;65435.88;4924320;29;20138;-42
2021/06/15 01:00:52;;;;;;;16.23;9.73;;;;;;;-145.50;100.00;65435.88;4919806;29;20179;-42
2021/06/15 01:03:20;;;;;;;15.68;9.70;;;;;;;-145.50;100.00;65435.88;4924819;29;20055;-43
2021/06/15 01:05:48;;;;;;;15.57;9.85;;;;;;;-145.50;100.00;65435.88;4922377;29;20154;-42
2021/06/15 01:08:23;;;;;;;18.05;8.90;;;;;;;-145.50;100.00;65435.88;4903980;29;20142;-42
2021/06/15 01:11:11;;;;;;;15.05;9.13;;;;;;;-145.50;100.00;65435.88;4905598;29;20249;-41
2021/06/15 01:13:57;;;;;;;13.63;8.43;;;;;;;-145.50;100.00;65435.88;4906059;29;20079;-42
2021/06/15 01:16:32;;;;;;;17.48;8.00;;;;;;;-145.50;100.00;65435.88;4922424;29;20143;-43
2021/06/15 01:19:16;;;;;;;12.57;7.65;;;;;;;-145.50;100.00;65435.88;4919796;29;20150;-42
2021/06/15 01:22:09;;;;;;;19.85;8.35;;;;;;;-145.50;100.00;65435.88;4918977;29;20094;-42
2021/06/15 01:24:43;;;;;;;17.08;8.25;;;;;;;-145.50;100.00;65435.88;4918522;29;20559;-42
2021/06/15 01:27:21;;;;;;;11.02;7.50;;;;;;;-145.50;100.00;65435.88;4916425;29;20745;-42
2021/06/15 01:29:52;;;;;;;16.58;7.95;;;;;;;-145.50;100.00;65435.88;4918085;29;20130;-42
2021/06/15 01:32:30;;;;;;;16.15;8.70;;;;;;;-145.50;100.00;65435.88;4924575;29;20107;-42
2021/06/15 01:34:58;;;;;;;15.88;8.35;;;;;;;-145.50;100.00;65435.88;4913135;29;20091;-42
2021/06/15 01:37:34;;;;;;;13.15;7.78;;;;;;;-145.50;100.00;65435.88;4923684;29;20167;-42
2021/06/15 01:40:14;;;;;;;14.73;8.07;;;;;;;-145.50;100.00;65435.88;4909774;29;20091;-44
2021/06/15 01:42:53;;;;;;;12.45;7.28;;;;;;;-145.50;100.00;65435.88;4914120;29;20510;-42
2021/06/15 01:45:30;;;;;;;12.98;6.78;;;;;;;-145.50;100.00;65435.88;4918645;29;20054;-42
2021/06/15 01:48:13;;;;;;;17.85;7.40;;;;;;;-145.50;100.00;65435.88;4917636;29;20162;-43
2021/06/15 01:50:43;;;;;;;13.90;7.15;;;;;;;-145.50;100.00;65435.88;4918727;29;20083;-45
2021/06/15 01:53:12;;;;;;;11.50;6.90;;;;;;;-145.50;100.00;65435.88;4927330;29;20146;-45
2021/06/15 01:55:45;;;;;;;10.95;6.80;;;;;;;-145.50;100.00;65435.88;4920915;29;20398;-43
2021/06/15 01:58:12;;;;;;;17.58;7.03;;;;;;;-145.50;100.00;65435.88;4910440;29;20087;-44
2021/06/15 02:00:40;;;;;;;10.52;6.75;;;;;;;-145.50;100.00;65435.88;4923275;29;20484;-45
2021/06/15 02:03:07;;;;;;;12.25;6.85;;;;;;;-145.50;100.00;65435.88;4914822;29;20087;-44
2021/06/15 02:05:39;;;;;;;17.15;8.50;;;;;;;-145.50;100.00;65435.88;4929474;29;20146;-44
2021/06/15 02:08:07;;;;;;;16.15;7.60;;;;;;;-145.50;100.00;65435.88;4936027;28;20145;-44
2021/06/15 02:10:35;;;;;;;;;;;;;;;-145.50;100.00;65435.88;4928143;29;20086;-43
2021/06/15 02:13:02;;;;;;;12.75;7.43;;;;;;;-145.50;100.00;65435.88;4921541;29;20013;-44
2021/06/15 02:15:31;;;;;;;14.70;7.43;;;;;;;-145.50;100.00;65435.88;4925915;29;20650;-44
2021/06/15 02:18:00;;;;;;;15.13;8.20;;;;;;;-145.50;100.00;65435.88;4904862;29;20159;-45
2021/06/15 02:20:33;;;;;;;15.60;7.78;;;;;;;-145.50;100.00;65435.88;4908438;29;20944;-44
2021/06/15 02:23:01;;;;;;;18.33;7.88;;;;;;;-145.50;100.00;65435.88;4925408;29;20155;-46
2021/06/15 02:25:29;;;;;;;;;;;;;;;-145.50;100.00;65435.88;4911417;29;20146;-45
2021/06/15 02:27:56;;;;;;;15.30;8.02;;;;;;;-145.50;100.00;65435.88;4907574;29;19981;-44
2021/06/15 02:30:23;;;;;;;12.88;7.40;;;;;;;-145.50;100.00;65435.88;4897012;29;20461;-48
2021/06/15 02:32:53;;;;;;;12.73;7.43;;;;;;;-145.50;100.00;65435.88;4908612;29;20060;-44
2021/06/15 02:35:22;;;;;;;11.10;7.15;;;;;;;-145.50;100.00;65435.88;4903034;29;20143;-44
2021/06/15 02:37:55;;;;;;;15.13;7.05;;;;;;;-145.50;100.00;65435.88;4909371;29;20147;-42
2021/06/15 02:40:26;;;;;;;14.50;7.40;;;;;;;-145.50;100.00;65435.88;4916105;29;20094;-44
2021/06/15 02:42:55;;;;;;;15.25;7.15;;;;;;;-145.50;100.00;65435.88;4916918;29;20154;-42
2021/06/15 02:45:26;;;;;;;13.85;6.85;;;;;;;-145.50;100.00;65435.88;4916709;29;20056;-44
2021/06/15 02:47:55;;;;;;;11.57;6.78;;;;;;;-145.50;100.00;65435.88;4915596;29;20146;-42
2021/06/15 02:50:23;;;;;;;12.50;6.95;;;;;;;-145.50;100.00;65435.88;4897750;29;20083;-43
2021/06/15 02:53:00;;;;;;;15.18;8.52;;;;;;;-145.50;100.00;65435.88;4908802;29;20143;-43
2021/06/15 02:55:33;;;;;;;15.15;8.13;;;;;;;-145.50;100.00;65435.88;4899182;29;20150;-45
2021/06/15 02:58:00;;;;;;;16.85;9.35;;;;;;;-145.50;100.00;65435.88;4896566;29;20650;-43
2021/06/15 03:00:27;;;;;;;14.43;8.75;;;;;;;-145.50;100.00;65435.88;4924431;29;20740;-44
2021/06/15 03:02:54;;;;;;;16.80;8.35;;;;;;;-145.50;100.00;65435.88;4921956;29;20079;-43
2021/06/15 03:05:20;;;;;;;16.50;8.75;;;;;;;-145.50;100.00;65435.88;4925452;29;20083;-42
2021/06/15 03:07:47;;;;;;;13.68;8.25;;;;;;;-145.50;100.00;65435.88;4923716;29;20083;-42
2021/06/15 03:10:15;;;;;;;17.50;8.52;;;;;;;-145.50;100.00;65435.88;4917775;29;20083;-42
2021/06/15 03:13:06;;;;;;;14.98;8.20;;;;;;;-145.50;100.00;65435.88;4921762;29;20078;-42
2021/06/15 03:15:45;;;;;;;11.50;7.25;;;;;;;-145.50;100.00;65435.88;4920360;28;20051;-43
2021/06/15 03:18:32;;;;;;;10.55;6.88;;;;;;;-145.50;100.00;65435.88;4927134;29;20105;-43
2021/06/15 03:21:03;;;;;;;14.15;7.32;;;;;;;-145.50;100.00;65435.88;4914223;29;20142;-44
2021/06/15 03:24:02;;;;;;;16.45;7.38;;;;;;;-145.50;100.00;65435.88;4925516;29;20139;-42
2021/06/15 03:26:34;;;;;;;11.93;6.95;;;;;;;-145.50;100.00;65435.88;4909763;29;20150;-46
2021/06/15 03:29:02;;;;;;;9.98;5.63;;;;;;;-145.50;100.00;65435.88;4921394;29;20142;-43
2021/06/15 03:31:40;;;;;;;11.75;5.82;;;;;;;-145.50;100.00;65435.88;4915076;29;20142;-45
2021/06/15 03:34:10;;;;;;;10.70;5.05;;;;;;;-145.50;100.00;65435.88;4917228;29;20056;-46
2021/06/15 03:36:39;;;;;;;9.52;5.20;;;;;;;-145.50;100.00;65435.88;4908433;29;21005;-44
2021/06/15 03:39:05;;;;;;;;;;;;;;;-145.50;100.00;65435.88;4918591;29;20461;-42
2021/06/15 03:41:35;;;;;;;12.32;5.20;;;;;;;-145.50;100.00;65435.88;4917642;29;20037;-43
2021/06/15 03:44:04;;;;;;;14.68;4.68;;;;;;;-145.50;100.00;65435.88;4918560;29;20835;-43
2021/06/15 03:46:33;;;;;;;13.45;5.10;;;;;;;-145.50;100.00;65435.88;4921706;29;20079;-43
2021/06/15 03:49:03;;;;;;;10.50;4.82;;;;;;;-145.50;100.00;65435.88;4915733;29;20062;-43
2021/06/15 03:51:32;;;;;;;9.38;4.95;;;;;;;-145.50;100.00;65435.88;4925203;29;20139;-45
2021/06/15 03:54:08;;;;;;;9.45;4.82;;;;;;;-145.50;100.00;65435.88;4898984;29;20055;-44
2021/06/15 03:56:38;;;;;;;11.98;5.15;;;;;;;-145.50;100.00;65435.88;4910498;29;20055;-44
2021/06/15 03:59:07;;;;;;;8.77;4.45;;;;;;;-145.50;100.00;65435.88;4926575;29;20568;-42
2021/06/15 04:01:36;;;;;;;9.45;4.82;;;;;;;-145.50;100.00;65435.88;4914102;29;20151;-42
2021/06/15 04:04:05;;;;;;;9.52;4.60;;;;;;;-145.50;100.00;65435.88;4901992;29;20063;-42
2021/06/15 04:06:36;;;;;;;9.50;5.03;;;;;;;-145.50;100.00;65435.88;4904731;29;20143;-42
2021/06/15 04:09:06;;;;;;;9.88;5.00;;;;;;;-145.50;100.00;65435.88;4912705;29;20078;-42
2021/06/15 04:11:35;;;;;;;7.22;4.78;;;;;;;-145.50;100.00;65435.88;4911414;29;20084;-44
2021/06/15 04:14:04;;;;;;;8.55;4.88;;;;;;;-145.50;100.00;65435.88;4923565;29;20097;-42
2021/06/15 04:16:31;;;;;;;11.35;4.38;;;;;;;-145.50;100.00;65435.88;4920649;29;20146;-42
2021/06/15 04:19:00;;;;;;;10.38;4.72;;;;;;;-145.50;100.00;65435.88;4908192;29;20162;-42
2021/06/15 04:21:32;;;;;;;9.10;4.22;;;;;;;-145.50;100.00;65435.88;4905994;29;20079;-42
2021/06/15 04:24:03;;;;;;;10.07;4.70;;;;;;;-145.50;100.00;65435.88;4920898;29;20079;-44
2021/06/15 04:26:33;;;;;;;9.63;4.80;;;;;;;-145.50;100.00;65435.88;4921566;29;20142;-42
2021/06/15 04:29:06;;;;;;;12.10;4.93;;;;;;;-145.50;100.00;65435.88;4916903;29;20430;-44
2021/06/15 04:31:34;;;;;;;11.05;5.03;;;;;;;-145.50;100.00;65435.88;4920753;29;20226;-42
2021/06/15 04:34:02;;;;;;;12.38;4.47;;;;;;;-145.50;100.00;65435.88;4889029;29;20163;-42
2021/06/15 04:36:31;;;;;;;;;;;;;;;-145.50;100.00;65435.88;4921392;29;20151;-43
2021/06/15 04:39:03;;;;;;;7.15;4.50;;;;;;;-145.50;100.00;65435.88;4909674;29;20768;-43
2021/06/15 04:41:38;;;;;;;11.75;4.20;;;;;;;-145.50;100.00;65435.88;4917053;29;20071;-45
2021/06/15 04:44:09;;;;;;;6.45;4.13;;;;;;;-145.50;100.00;65435.88;4914686;29;20673;-45
2021/06/15 04:47:03;;;;;;;10.02;4.20;;;;;;;-145.50;100.00;65435.88;4915684;29;20811;-45
2021/06/15 04:49:46;;;;;;;9.30;3.65;;;;;;;-145.50;100.00;65435.88;4908068;29;20067;-44
2021/06/15 04:52:17;;;;;;;9.10;3.30;;;;;;;-145.50;100.00;65435.88;4912187;29;20419;-45
2021/06/15 04:54:48;;;;;;;7.80;3.42;;;;;;;-145.50;100.00;65435.88;4914524;29;20860;-44
2021/06/15 04:57:20;;;;;;;11.63;4.22;;;;;;;-145.50;100.00;65435.88;4912479;29;20162;-42
2021/06/15 04:59:50;;;;;;;8.82;3.38;;;;;;;-145.50;100.00;65435.88;4920397;29;20079;-44
2021/06/15 05:02:20;;;;;;;8.50;2.95;;;;;;;-145.50;100.00;65435.88;4902429;29;20130;-43
2021/06/15 05:04:48;;;;;;;12.30;3.35;;;;;;;-145.50;100.00;65435.88;4898957;29;20131;-43
2021/06/15 05:07:18;;;;;;;9.80;3.33;;;;;;;-145.50;100.00;65435.88;4916380;29;20056;-43
2021/06/15 05:09:48;;;;;;;8.13;3.00;;;;;;;-145.50;100.00;65435.88;4919627;29;20086;-43
2021/06/15 05:12:17;;;;;;;11.02;3.55;;;;;;;-145.50;100.00;65435.88;4907157;29;20566;-43
2021/06/15 05:14:45;;;;;;;8.43;2.80;;;;;;;-145.50;100.00;65435.88;4907786;29;20060;-43
2021/06/15 05:17:14;;;;;;;12.20;2.70;;;;;;;-145.50;100.00;65435.88;4906252;29;20246;-44
2021/06/15 05:19:41;;;;;;;8.70;2.58;;;;;;;-145.50;100.00;65435.88;4906710;29;20056;-45
2021/06/15 05:22:17;;;;;;;10.40;2.53;;;;;;;-145.50;100.00;65435.88;4915607;29;20091;-44
2021/06/15 05:24:46;;;;;;;7.68;2.42;;;;;;;-145.50;100.00;65435.88;4914435;29;20432;-47
2021/06/15 05:27:14;;;;;;;5.68;2.55;;;;;;;-145.50;100.00;65435.88;4920278;29;20056;-44
2021/06/15 05:29:40;;;;;;;7.35;3.13;;;;;;;-145.50;100.00;65435.88;4914115;29;20090;-42
2021/06/15 05:32:08;;;;;;;8.05;2.30;;;;;;;-145.50;100.00;65435.88;4907462;29;20473;-43
2021/06/15 05:34:35;;;;;;;9.52;2.25;;;;;;;-145.50;100.00;65435.88;4907984;29;20143;-43
2021/06/15 05:37:03;;;;;;;6.68;2.50;;;;;;;-145.50;100.00;65435.88;4917537;29;20083;-44
2021/06/15 05:39:31;;;;;;;7.20;2.42;;;;;;;-145.50;100.00;65435.88;4910167;29;20146;-43
2021/06/15 05:41:57;;;;;;;7.43;2.40;;;;;;;-145.50;100.00;65435.88;4910115;29;20088;-44
2021/06/15 05:44:24;;;;;;;7.63;2.30;;;;;;;-145.50;100.00;65435.88;4920896;29;20318;-43
2021/06/15 05:46:51;;;;;;;15.93;3.75;;;;;;;-145.50;100.00;65435.88;4910674;29;20051;-43
2021/06/15 05:49:17;;;;;;;8.63;2.90;;;;;;;-145.50;100.00;65435.88;4920082;29;20147;-43
2021/06/15 05:51:45;;;;;;;9.77;2.60;;;;;;;-145.50;100.00;65435.88;4918573;29;20063;-42
2021/06/15 05:54:12;;;;;;;6.77;2.03;;;;;;;-145.50;100.00;65435.88;4894690;29;20071;-43
2021/06/15 05:56:38;;;;;;;7.50;2.08;;;;;;;-145.50;100.00;65435.88;4909260;29;20151;-46
2021/06/15 05:59:05;;;;;;;9.90;2.45;;;;;;;-145.50;100.00;65435.88;4911198;29;20131;-45
2021/06/15 06:01:32;;;;;;;6.70;2.10;;;;;;;-145.50;100.00;65435.88;4912978;29;20098;-49
2021/06/15 06:04:07;;;;;;;7.97;2.35;;;;;;;-145.50;100.00;65435.88;4914313;29;20494;-43
2021/06/15 06:09:19;;;;;;;10.52;2.92;;;;;;;-145.50;100.00;65435.88;4913365;29;20162;-43
2021/06/15 06:11:46;;;;;;;6.70;2.70;;;;;;;-145.50;100.00;65435.88;4910547;29;20171;-45
2021/06/15 06:14:13;;;;;;;10.00;2.65;;;;;;;-145.50;100.00;65435.88;4900124;29;20142;-44
2021/06/15 06:16:42;;;;;;;8.38;2.17;;;;;;;-145.50;100.00;65435.88;4913397;29;20480;-43
2021/06/15 06:19:14;;;;;;;9.15;2.20;;;;;;;-145.50;100.00;65435.88;4906161;29;20111;-43
2021/06/15 06:21:43;;;;;;;7.25;2.45;;;;;;;-145.50;100.00;65435.88;4897511;29;20071;-43
2021/06/15 06:24:11;;;;;;;7.07;2.38;;;;;;;-145.50;100.00;65435.88;4910723;29;20060;-45
2021/06/15 06:26:38;;;;;;;10.27;2.35;;;;;;;-145.50;100.00;65435.88;4913959;29;20063;-44
2021/06/15 06:29:06;;;;;;;8.73;1.83;;;;;;;-145.50;100.00;65435.88;4920435;29;20083;-43
2021/06/15 06:31:32;;;;;;;8.48;2.15;;;;;;;-145.50;100.00;65435.88;4915414;29;20135;-43
2021/06/15 06:33:59;;;;;;;8.27;2.83;;;;;;;-145.50;100.00;65435.88;4921700;29;20160;-43
2021/06/15 06:36:27;;;;;;;9.35;2.25;;;;;;;-145.50;100.00;65435.88;4902779;29;21024;-43
2021/06/15 06:38:53;;;;;;;7.10;1.90;;;;;;;-145.50;100.00;65435.88;4927022;29;20268;-43
2021/06/15 06:41:21;;;;;;;10.00;1.90;;;;;;;-145.50;100.00;65435.88;4917032;29;20449;-44
2021/06/15 06:43:48;;;;;;;5.57;1.55;;;;;;;-145.50;100.00;65435.88;4921827;29;20143;-43
2021/06/15 06:46:15;;;;;;;9.43;1.70;;;;;;;-145.50;100.00;65435.88;4924987;29;20182;-43
2021/06/15 06:48:42;;;;;;;5.50;1.63;;;;;;;-145.50;100.00;65435.88;4907108;29;20052;-43
2021/06/15 06:51:08;;;;;;;7.22;2.05;;;;;;;-145.50;100.00;65435.88;4916684;29;20163;-43
2021/06/15 06:53:36;;;;;;;13.05;3.00;;;;;;;-145.50;100.00;65435.88;4910813;29;20489;-48
2021/06/15 06:56:06;;;;;;;6.00;2.08;;;;;;;-145.50;100.00;65435.88;4920820;29;20094;-45
2021/06/15 06:58:33;;;;;;;5.30;1.88;;;;;;;-145.50;100.00;65435.88;4932008;29;20848;-45
2021/06/15 07:01:01;;;;;;;13.45;3.65;;;;;;;-145.50;100.00;65435.88;4927123;29;20914;-45
2021/06/15 07:03:27;;;;;;;18.38;4.78;;;;;;;-145.50;100.00;65435.88;4920123;29;20468;-43
2021/06/15 07:05:54;;;;;;;15.30;2.80;;;;;;;-145.50;100.00;65435.88;4919866;29;20148;-44
2021/06/15 07:08:21;;;;;;;9.85;1.83;;;;;;;-145.50;100.00;65435.88;4912717;29;20122;-44
2021/06/15 07:10:47;;;;;;;6.25;1.55;;;;;;;-145.50;100.00;65435.88;4917249;29;20142;-44
2021/06/15 07:13:14;;;;;;;9.68;2.03;;;;;;;-145.50;100.00;65435.88;4925874;29;20174;-44
2021/06/15 07:15:40;;;;;;;8.63;1.70;;;;;;;-145.50;100.00;65435.88;4907541;29;20062;-44
2021/06/15 07:18:07;;;;;;;6.80;1.83;;;;;;;-145.50;100.00;65435.88;4916490;29;20138;-43
2021/06/15 07:20:33;;;;;;;4.88;1.63;;;;;;;-145.50;100.00;65435.88;4908117;29;20126;-43
2021/06/15 07:23:00;;;;;;;6.55;1.80;;;;;;;-145.50;100.00;65435.88;4922203;29;20146;-43
2021/06/15 07:25:27;;;;;;;9.68;2.00;;;;;;;-145.50;100.00;65435.88;4914892;29;20063;-43
2021/06/15 07:27:54;;;;;;;9.50;1.65;;;;;;;-145.50;100.00;65435.88;4918722;29;20141;-43
2021/06/15 07:30:21;;;;;;;7.60;1.52;;;;;;;-145.50;100.00;65435.88;4918355;29;20135;-45
2021/06/15 07:32:48;;;;;;;5.93;1.40;;;;;;;-145.50;100.00;65435.88;4914110;29;20052;-44
2021/06/15 07:35:14;;;;;;;10.02;1.60;;;;;;;-145.50;100.00;65435.88;4919237;29;20162;-43
2021/06/15 07:37:41;;;;;;;6.28;1.60;;;;;;;-145.50;100.00;65435.88;4907941;28;20051;-43
2021/06/15 07:40:08;;;;;;;10.35;2.15;;;;;;;-145.50;100.00;65435.88;4925233;29;20075;-43
2021/06/15 07:42:35;;;;;;;7.50;1.75;;;;;;;-145.50;100.00;65435.88;4920095;29;20635;-44
2021/06/15 07:45:02;;;;;;;9.07;1.50;;;;;;;-145.50;100.00;65435.88;4926619;29;20130;-43
2021/06/15 07:47:29;;;;;;;8.73;2.03;;;;;;;-145.50;100.00;65435.88;4926204;29;20055;-44
2021/06/15 07:50:10;;;;;;;8.93;1.70;;;;;;;-145.50;100.00;65435.88;4894231;29;20879;-45
2021/06/15 07:52:37;;;;;;;10.10;2.50;;;;;;;-145.50;100.00;65435.88;4917720;29;20142;-44
2021/06/15 07:55:04;;;;;;;8.38;2.10;;;;;;;-145.50;100.00;65435.88;4918967;29;20090;-44
2021/06/15 07:57:30;;;;;;;10.77;2.10;;;;;;;-145.50;100.00;65435.88;4918493;29;20116;-44
2021/06/15 07:59:57;;;;;;;6.35;1.42;;;;;;;-145.50;100.00;65435.88;4909966;29;20055;-43
2021/06/15 08:02:23;;;;;;;9.65;1.60;;;;;;;-145.50;100.00;65435.88;4923400;29;20821;-44
2021/06/15 08:04:50;;;;;;;6.63;1.77;;;;;;;-145.50;100.00;65435.88;4917644;29;20154;-44
2021/06/15 08:07:16;;;;;;;9.75;2.00;;;;;;;-145.50;100.00;65435.88;4926526;29;20141;-43
2021/06/15 08:09:43;;;;;;;9.55;1.63;;;;;;;-145.50;100.00;65435.88;4916410;29;20135;-45
2021/06/15 08:12:10;;;;;;;5.95;1.55;;;;;;;-145.50;100.00;65435.88;4883571;29;20143;-43
2021/06/15 08:14:36;;;;;;;10.30;1.58;;;;;;;-145.50;100.00;65435.88;4906800;29;20060;-43
2021/06/15 08:17:03;;;;;;;8.00;1.77;;;;;;;-145.50;100.00;65435.88;4913694;29;20087;-44
2021/06/15 08:19:30;;;;;;;8.38;1.60;;;;;;;-145.50;100.00;65435.88;4914425;29;20134;-43
2021/06/15 08:21:56;;;;;;;9.93;1.85;;;;;;;-145.50;100.00;65435.88;4913211;29;20060;-43
2021/06/15 08:24:23;;;;;;;7.32;1.40;;;;;;;-145.50;100.00;65435.88;4920458;29;20086;-43
2021/06/15 08:26:49;;;;;;;8.32;1.25;;;;;;;-145.50;100.00;65435.88;4925895;29;20098;-43
2021/06/15 08:29:16;;;;;;;6.93;1.52;;;;;;;-145.50;100.00;65435.88;4919183;29;20186;-46
2021/06/15 08:31:43;;;;;;;6.30;1.20;;;;;;;-145.50;100.00;65435.88;4914988;29;20063;-43
2021/06/15 08:34:10;;;;;;;6.47;1.27;;;;;;;-145.50;100.00;65435.88;4907845;29;20401;-45
2021/06/15 08:36:36;;;;;;;7.53;1.45;;;;;;;-145.50;100.00;65435.88;4920123;29;20130;-43
2021/06/15 08:39:05;;;;;;;6.28;1.30;;;;;;;-145.50;100.00;65435.88;4914525;29;20160;-44
2021/06/15 08:41:32;;;;;;;10.50;3.35;;;;;;;-145.50;100.00;65435.88;4925110;29;20083;-46
2021/06/15 08:44:00;;;;;;;9.13;1.90;;;;;;;-145.50;100.00;65435.88;4922508;29;20059;-43
2021/06/15 08:46:27;;;;;;;;;;;;;;;-145.50;100.00;65435.88;4912691;29;20051;-44
2021/06/15 08:48:56;;;;;;;5.90;1.58;;;;;;;-145.50;100.00;65435.88;4918717;29;20017;-44
2021/06/15 08:51:22;;;;;;;6.22;1.60;;;;;;;-145.50;100.00;65435.88;4916135;29;20139;-44
2021/06/15 08:53:52;;;;;;;7.43;1.58;;;;;;;-145.50;100.00;65435.88;4923518;29;20135;-43
2021/06/15 08:56:22;;;;;;;11.73;1.73;;;;;;;-145.50;100.00;65435.88;4901588;29;20170;-45
2021/06/15 08:59:22;;;;;;;9.95;2.22;;;;;;;-145.50;100.00;65435.88;4919536;29;20134;-44
2021/06/15 09:01:51;;;;;;;5.78;1.67;;;;;;;-145.50;100.00;65435.88;4913901;29;20158;-44
2021/06/15 09:04:18;;;;;;;7.95;2.20;;;;;;;-145.50;100.00;65435.88;4925320;29;20066;-45
2021/06/15 09:06:45;;;;;;;10.43;2.58;;;;;;;-145.50;100.00;65435.88;4919296;29;20055;-46
2021/06/15 09:09:12;;;;;;;10.10;1.98;;;;;;;-145.50;100.00;65435.88;4918473;29;20616;-44
2021/06/15 09:11:56;;;;;;;9.18;2.35;;;;;;;-145.50;100.00;65435.88;4885641;29;20059;-45
2021/06/15 09:14:44;;;;;;;9.68;2.42;;;;;;;-145.50;100.00;65435.88;4896526;29;20092;-46
2021/06/15 09:17:17;;;;;;;6.90;1.83;;;;;;;-145.50;100.00;65435.88;4909068;29;20142;-45
2021/06/15 09:19:45;;;;;;;8.38;2.00;;;;;;;-145.50;100.00;65435.88;4904495;29;20048;-44
2021/06/15 09:22:23;;;;;;;7.50;1.57;;;;;;;-145.50;100.00;65435.88;4919645;29;20158;-45
2021/06/15 09:24:49;;;;;;;11.57;2.00;;;;;;;-145.50;100.00;65435.88;4914755;29;20059;-44
2021/06/15 09:27:16;;;;;;;6.43;1.98;;;;;;;-145.50;100.00;65435.88;4910943;29;20060;-45
2021/06/15 09:29:47;;;;;;;8.38;1.90;;;;;;;-145.50;100.00;65435.88;4912821;29;20147;-47
2021/06/15 09:32:41;;;;;;;9.63;2.42;;;;;;;-145.50;100.00;65435.88;4919560;29;20135;-45
2021/06/15 09:35:10;;;;;;;9.43;2.10;;;;;;;-145.50;100.00;65435.88;4901040;29;20055;-44
2021/06/15 09:37:41;;;;;;;4.97;1.40;;;;;;;-145.50;100.00;65435.88;4924805;29;20083;-44
2021/06/15 09:40:32;;;;;;;9.95;2.13;;;;;;;-145.50;100.00;65435.88;4901443;29;20051;-45
2021/06/15 09:43:06;;;;;;;8.07;1.80;;;;;;;-145.50;100.00;65435.88;4911067;29;20087;-46
2021/06/15 09:45:38;;;;;;;6.68;1.45;;;;;;;-145.50;100.00;65435.88;4924711;29;20158;-44
2021/06/15 09:48:24;;;;;;;10.82;2.00;;;;;;;-145.50;100.00;65435.88;4899720;29;20139;-44
2021/06/15 09:50:57;;;;;;;7.68;1.95;;;;;;;-145.50;100.00;65435.88;4925061;29;20151;-47
2021/06/15 09:53:35;;;;;;;7.63;1.88;;;;;;;-145.50;100.00;65435.88;4910098;29;20130;-44
2021/06/15 09:56:05;;;;;;;;;;;;;;;-145.50;100.00;65435.88;4915875;29;20155;-46
2021/06/15 09:58:51;;;;;;;6.88;1.95;;;;;;;-145.50;100.00;65435.88;4901225;29;20009;-46
2021/06/15 10:01:34;;;;;;;7.07;2.25;;;;;;;-145.50;100.00;65435.88;4917482;29;20582;-46
2021/06/15 10:04:17;;;;;;;8.05;2.22;;;;;;;-145.50;100.00;65435.88;4921646;29;20775;-49
2021/06/15 10:06:49;;;;;;;9.02;2.60;;;;;;;-145.50;100.00;65435.88;4910220;29;20130;-46
2021/06/15 10:09:24;;;;;;;9.02;2.13;;;;;;;-145.50;100.00;65435.88;4915326;29;20044;-47
2021/06/15 10:11:56;;;;;;;12.80;3.75;;;;;;;-145.50;100.00;65435.88;4927589;29;20094;-44
2021/06/15 10:14:24;;;;;;;6.10;1.85;;;;;;;-145.50;100.00;65435.88;4912991;29;20083;-46
2021/06/15 10:16:51;;;;;;;9.88;2.10;;;;;;;-145.50;100.00;65435.88;4921983;29;20551;-49
2021/06/15 10:19:18;;;;;;;6.90;1.60;;;;;;;-145.50;100.00;65435.88;4912201;29;20465;-51
2021/06/15 10:21:44;;;;;;;11.25;1.55;;;;;;;-145.50;100.00;65435.88;4916439;29;20671;-45
2021/06/15 10:24:18;;;;;;;5.00;1.65;;;;;;;-145.50;100.00;65435.88;4920265;29;20059;-46
2021/06/15 10:26:59;;;;;;;7.63;1.75;;;;;;;-145.50;100.00;65435.88;4925012;29;20879;-47
2021/06/15 10:29:27;;;;;;;13.93;2.10;;;;;;;-145.50;100.00;65435.88;4925957;29;20931;-44
2021/06/15 10:31:54;;;;;;;5.45;1.70;;;;;;;-145.50;100.00;65435.88;4919697;29;20621;-44
2021/06/15 10:34:54;;;;;;;7.40;1.88;;;;;;;-145.50;100.00;65435.88;4923592;29;20442;-44
2021/06/15 10:37:32;;;;;;;12.68;2.40;;;;;;;-145.50;100.00;65435.88;4907963;29;20079;-45
2021/06/15 10:40:04;;;;;;;10.38;2.80;;;;;;;-145.50;100.00;65435.88;4923600;29;20106;-44
2021/06/15 10:42:32;;;;;;;9.07;2.00;;;;;;;-145.50;100.00;65435.88;4914155;29;20052;-46
2021/06/15 10:45:16;;;;;;;10.02;2.00;;;;;;;-145.50;100.00;65435.88;4922961;29;20114;-44
2021/06/15 10:48:09;;;;;;;10.75;2.50;;;;;;;-145.50;100.00;65435.88;4913538;29;20058;-43
2021/06/15 10:50:41;;;;;;;6.10;1.48;;;;;;;-145.50;100.00;65435.88;4915641;29;20059;-46
2021/06/15 10:53:12;;;;;;;8.68;1.60;;;;;;;-145.50;100.00;65435.88;4914149;29;20055;-44
2021/06/15 10:55:46;;;;;;;7.78;1.98;;;;;;;-145.50;100.00;65435.88;4923436;29;20593;-46
2021/06/15 10:58:13;;;;;;;7.82;1.70;;;;;;;-145.50;100.00;65435.88;4937574;28;20059;-46
2021/06/15 11:00:53;;;;;;;11.35;2.00;;;;;;;-145.50;100.00;65435.88;4918187;29;20126;-44
2021/06/15 11:03:24;;;;;;;10.32;2.10;;;;;;;-145.50;100.00;65435.88;4908455;29;20428;-43
2021/06/15 11:05:59;;;;;;;8.35;2.08;;;;;;;-145.50;100.00;65435.88;4910053;29;20126;-44
2021/06/15 11:08:29;;;;;;;11.93;2.25;;;;;;;-145.50;100.00;65435.88;4917968;29;20074;-44
2021/06/15 11:10:57;;;;;;;13.98;2.22;;;;;;;-145.50;100.00;65435.88;4908626;29;20140;-44
2021/06/15 11:13:38;;;;;;;;;;;;;;;-145.50;100.00;65435.88;4910985;29;20066;-47
2021/06/15 11:16:21;;;;;;;8.98;1.92;;;;;;;-145.50;100.00;65435.88;4901899;29;19927;-47
2021/06/15 11:19:13;;;;;;;11.48;2.58;;;;;;;-145.50;100.00;65435.88;4915981;29;20082;-45
2021/06/15 11:21:53;;;;;;;9.30;2.08;;;;;;;-145.50;100.00;65435.88;4916635;28;20134;-45
2021/06/15 11:24:27;;;;;;;7.60;1.67;;;;;;;-145.50;100.00;65435.88;4923993;29;20091;-45
2021/06/15 11:27:15;;;;;;;11.05;1.77;;;;;;;-145.50;100.00;65435.88;4919085;29;20869;-46